sensor_id;sensor_type;location;lat;lon;timestamp;pressure;altitude;pressure_sealevel;temperature;humidity
43071;BME280;36278;47.952;21.714;2023-04-07T00:00:21;100102.97;;;1.15;100.00
43071;BME280;36278;47.952;21.714;2023-04-07T00:02:46;100101.63;;;1.04;100.00
43071;BME280;36278;47.952;21.714;2023-04-07T00:05:13;100096.31;;;1.07;100.00
43071;BME280;36278;47.952;21.714;2023-04-07T00:07:39;100091.09;;;1.07;100.00
43071;BME280;36278;47.952;21.714;2023-04-07T00:10:06;100102.66;;;1.22;100.00
43071;BME280;36278;47.952;21.714;2023-04-07T00:12:31;100107.22;;;1.37;100.00
43071;BME280;36278;47.952;21.714;2023-04-07T00:14:57;100101.84;;;1.42;100.00
43071;BME280;36278;47.952;21.714;2023-04-07T00:17:22;100105.97;;;1.26;100.00
43071;BME280;36278;47.952;21.714;2023-04-07T00:19:48;100106.13;;;1.23;100.00
43071;BME280;36278;47.952;21.714;2023-04-07T00:22:13;100097.06;;;1.31;100.00
43071;BME280;36278;47.952;21.714;2023-04-07T00:24:39;100102.28;;;1.31;100.00
43071;BME280;36278;47.952;21.714;2023-04-07T00:27:04;100096.31;;;1.28;100.00
43071;BME280;36278;47.952;21.714;2023-04-07T00:29:30;100105.91;;;1.27;100.00
43071;BME280;36278;47.952;21.714;2023-04-07T00:31:55;100100.75;;;1.26;100.00
43071;BME280;36278;47.952;21.714;2023-04-07T00:34:20;100101.63;;;1.26;100.00
43071;BME280;36278;47.952;21.714;2023-04-07T00:36:46;100095.84;;;1.18;100.00
43071;BME280;36278;47.952;21.714;2023-04-07T00:39:19;100093.31;;;1.17;100.00
43071;BME280;36278;47.952;21.714;2023-04-07T00:41:45;100093.31;;;1.17;100.00
43071;BME280;36278;47.952;21.714;2023-04-07T00:44:11;100097.97;;;1.30;100.00
43071;BME280;36278;47.952;21.714;2023-04-07T00:46:36;100091.25;;;1.25;100.00
43071;BME280;36278;47.952;21.714;2023-04-07T00:49:02;100098.81;;;1.31;100.00
43071;BME280;36278;47.952;21.714;2023-04-07T00:51:28;100097.09;;;1.30;100.00
43071;BME280;36278;47.952;21.714;2023-04-07T00:53:53;100096.31;;;1.28;100.00
43071;BME280;36278;47.952;21.714;2023-04-07T00:56:19;100091.56;;;1.17;100.00
43071;BME280;36278;47.952;21.714;2023-04-07T00:58:45;100098.09;;;1.27;100.00
43071;BME280;36278;47.952;21.714;2023-04-07T01:01:30;100095.69;;;1.23;100.00
43071;BME280;36278;47.952;21.714;2023-04-07T01:04:00;100092.53;;;1.15;100.00
43071;BME280;36278;47.952;21.714;2023-04-07T01:06:32;100091.72;;;1.34;100.00
43071;BME280;36278;47.952;21.714;2023-04-07T01:09:15;100093.00;;;1.24;100.00
43071;BME280;36278;47.952;21.714;2023-04-07T01:12:04;100090.72;;;1.37;100.00
43071;BME280;36278;47.952;21.714;2023-04-07T01:14:39;100099.75;;;1.50;100.00
43071;BME280;36278;47.952;21.714;2023-04-07T01:17:06;100084.00;;;1.52;100.00
43071;BME280;36278;47.952;21.714;2023-04-07T01:19:39;100093.09;;;1.43;100.00
43071;BME280;36278;47.952;21.714;2023-04-07T01:22:13;100096.75;;;1.39;100.00
43071;BME280;36278;47.952;21.714;2023-04-07T01:29:52;100096.38;;;1.48;100.00
43071;BME280;36278;47.952;21.714;2023-04-07T01:32:19;100098.50;;;1.38;100.00
43071;BME280;36278;47.952;21.714;2023-04-07T01:34:47;100088.38;;;1.31;100.00
43071;BME280;36278;47.952;21.714;2023-04-07T01:37:13;100097.97;;;1.30;100.00
43071;BME280;36278;47.952;21.714;2023-04-07T01:39:40;100099.84;;;1.27;100.00
43071;BME280;36278;47.952;21.714;2023-04-07T01:42:06;100097.75;;;1.15;100.00
43071;BME280;36278;47.952;21.714;2023-04-07T01:44:33;100092.34;;;1.19;100.00
43071;BME280;36278;47.952;21.714;2023-04-07T01:47:00;100094.94;;;1.19;100.00
43071;BME280;36278;47.952;21.714;2023-04-07T01:49:27;100095.47;;;1.27;100.00
43071;BME280;36278;47.952;21.714;2023-04-07T01:51:54;100091.38;;;1.42;100.00
43071;BME280;36278;47.952;21.714;2023-04-07T01:54:22;100095.75;;;1.42;100.00
43071;BME280;36278;47.952;21.714;2023-04-07T01:56:47;100100.91;;;1.43;100.00
43071;BME280;36278;47.952;21.714;2023-04-07T01:59:13;100097.31;;;1.25;100.00
43071;BME280;36278;47.952;21.714;2023-04-07T02:01:39;100099.84;;;1.27;100.00
43071;BME280;36278;47.952;21.714;2023-04-07T02:04:14;100094.47;;;1.31;100.00
43071;BME280;36278;47.952;21.714;2023-04-07T02:06:55;100093.06;;;1.23;100.00
43071;BME280;36278;47.952;21.714;2023-04-07T02:09:23;100103.84;;;1.13;100.00
43071;BME280;36278;47.952;21.714;2023-04-07T02:11:53;100091.63;;;1.16;100.00
43071;BME280;36278;47.952;21.714;2023-04-07T02:14:20;100095.16;;;1.15;100.00
43071;BME280;36278;47.952;21.714;2023-04-07T02:16:48;100093.25;;;1.18;100.00
43071;BME280;36278;47.952;21.714;2023-04-07T02:19:15;100090.03;;;1.11;100.00
43071;BME280;36278;47.952;21.714;2023-04-07T02:21:41;100075.75;;;1.00;100.00
43071;BME280;36278;47.952;21.714;2023-04-07T02:24:07;100097.88;;;1.11;100.00
43071;BME280;36278;47.952;21.714;2023-04-07T02:26:34;100090.16;;;1.08;100.00
43071;BME280;36278;47.952;21.714;2023-04-07T02:29:01;100097.31;;;1.25;100.00
43071;BME280;36278;47.952;21.714;2023-04-07T02:31:26;100097.25;;;1.27;100.00
43071;BME280;36278;47.952;21.714;2023-04-07T02:33:51;100098.31;;;1.21;100.00
43071;BME280;36278;47.952;21.714;2023-04-07T02:36:17;100102.16;;;1.12;100.00
43071;BME280;36278;47.952;21.714;2023-04-07T02:38:42;100093.06;;;1.23;100.00
43071;BME280;36278;47.952;21.714;2023-04-07T02:41:08;100097.16;;;1.28;100.00
43071;BME280;36278;47.952;21.714;2023-04-07T02:43:33;100087.66;;;1.27;100.00
43071;BME280;36278;47.952;21.714;2023-04-07T02:45:58;100097.69;;;1.36;100.00
43071;BME280;36278;47.952;21.714;2023-04-07T02:48:24;100098.38;;;1.42;100.00
43071;BME280;36278;47.952;21.714;2023-04-07T02:50:50;100100.75;;;1.48;100.00
43071;BME280;36278;47.952;21.714;2023-04-07T02:53:15;100103.47;;;1.45;100.00
43071;BME280;36278;47.952;21.714;2023-04-07T02:55:40;100098.97;;;1.48;100.00
43071;BME280;36278;47.952;21.714;2023-04-07T02:58:06;100102.97;;;1.57;100.00
43071;BME280;36278;47.952;21.714;2023-04-07T03:00:32;100103.97;;;1.53;100.00
43071;BME280;36278;47.952;21.714;2023-04-07T03:02:58;100101.59;;;1.48;100.00
43071;BME280;36278;47.952;21.714;2023-04-07T03:05:24;100110.91;;;1.54;100.00
43071;BME280;36278;47.952;21.714;2023-04-07T03:07:49;100106.41;;;1.57;100.00
43071;BME280;36278;47.952;21.714;2023-04-07T03:10:15;100101.91;;;1.61;100.00
43071;BME280;36278;47.952;21.714;2023-04-07T03:12:42;100098.59;;;1.57;100.00
43071;BME280;36278;47.952;21.714;2023-04-07T03:15:08;100107.34;;;1.56;100.00
43071;BME280;36278;47.952;21.714;2023-04-07T03:17:33;100110.56;;;1.61;100.00
43071;BME280;36278;47.952;21.714;2023-04-07T03:19:59;100105.69;;;1.54;100.00
43071;BME280;36278;47.952;21.714;2023-04-07T03:22:25;100102.19;;;1.55;100.00
43071;BME280;36278;47.952;21.714;2023-04-07T03:24:50;100108.78;;;1.63;100.00
43071;BME280;36278;47.952;21.714;2023-04-07T03:27:16;100112.34;;;1.61;100.00
43071;BME280;36278;47.952;21.714;2023-04-07T03:29:41;100112.47;;;1.58;100.00
43071;BME280;36278;47.952;21.714;2023-04-07T03:32:07;100116.25;;;1.51;100.00
43071;BME280;36278;47.952;21.714;2023-04-07T03:34:33;100116.97;;;1.54;100.00
43071;BME280;36278;47.952;21.714;2023-04-07T03:36:58;100120.50;;;1.53;100.00
43071;BME280;36278;47.952;21.714;2023-04-07T03:39:24;100117.78;;;1.56;100.00
43071;BME280;36278;47.952;21.714;2023-04-07T03:41:49;100120.19;;;1.61;100.00
43071;BME280;36278;47.952;21.714;2023-04-07T03:44:16;100123.38;;;1.47;100.00
43071;BME280;36278;47.952;21.714;2023-04-07T03:46:41;100110.81;;;1.35;100.00
43071;BME280;36278;47.952;21.714;2023-04-07T03:49:07;100121.13;;;1.38;100.00
43071;BME280;36278;47.952;21.714;2023-04-07T03:51:32;100112.97;;;1.25;100.00
43071;BME280;36278;47.952;21.714;2023-04-07T03:53:58;100127.41;;;1.34;100.00
43071;BME280;36278;47.952;21.714;2023-04-07T03:56:24;100132.47;;;1.37;100.00
43071;BME280;36278;47.952;21.714;2023-04-07T03:58:50;100137.53;;;1.42;100.00
43071;BME280;36278;47.952;21.714;2023-04-07T04:01:15;100132.22;;;1.43;100.00
43071;BME280;36278;47.952;21.714;2023-04-07T04:03:41;100131.38;;;1.43;100.00
43071;BME280;36278;47.952;21.714;2023-04-07T04:06:07;100141.97;;;1.39;100.00
43071;BME280;36278;47.952;21.714;2023-04-07T04:08:32;100141.66;;;1.47;100.00
43071;BME280;36278;47.952;21.714;2023-04-07T04:10:58;100129.84;;;1.38;100.00
43071;BME280;36278;47.952;21.714;2023-04-07T04:13:23;100131.31;;;1.44;100.00
43071;BME280;36278;47.952;21.714;2023-04-07T04:15:49;100126.94;;;1.45;100.00
43071;BME280;36278;47.952;21.714;2023-04-07T04:18:14;100134.00;;;1.43;100.00
43071;BME280;36278;47.952;21.714;2023-04-07T04:20:41;100143.34;;;1.48;100.00
43071;BME280;36278;47.952;21.714;2023-04-07T04:23:07;100140.19;;;1.40;100.00
43071;BME280;36278;47.952;21.714;2023-04-07T04:25:32;100147.19;;;1.39;100.00
43071;BME280;36278;47.952;21.714;2023-04-07T04:27:57;100129.94;;;1.35;100.00
43071;BME280;36278;47.952;21.714;2023-04-07T04:30:23;100142.00;;;1.38;100.00
43071;BME280;36278;47.952;21.714;2023-04-07T04:32:49;100138.44;;;1.40;100.00
43071;BME280;36278;47.952;21.714;2023-04-07T04:35:14;100152.03;;;1.49;100.00
43071;BME280;36278;47.952;21.714;2023-04-07T04:37:40;100147.72;;;1.48;100.00
43071;BME280;36278;47.952;21.714;2023-04-07T04:40:06;100146.59;;;1.53;100.00
43071;BME280;36278;47.952;21.714;2023-04-07T04:42:33;100154.44;;;1.53;100.00
43071;BME280;36278;47.952;21.714;2023-04-07T04:44:58;100151.25;;;1.47;100.00
43071;BME280;36278;47.952;21.714;2023-04-07T04:47:24;100154.38;;;1.55;100.00
43071;BME280;36278;47.952;21.714;2023-04-07T04:49:50;100146.59;;;1.53;100.00
43071;BME280;36278;47.952;21.714;2023-04-07T04:52:15;100152.31;;;1.63;100.00
43071;BME280;36278;47.952;21.714;2023-04-07T04:54:41;100163.28;;;1.71;100.00
43071;BME280;36278;47.952;21.714;2023-04-07T04:57:06;100156.47;;;1.67;100.00
43071;BME280;36278;47.952;21.714;2023-04-07T04:59:32;100165.94;;;1.69;100.00
43071;BME280;36278;47.952;21.714;2023-04-07T05:01:58;100156.28;;;1.72;100.00
43071;BME280;36278;47.952;21.714;2023-04-07T05:04:23;100152.50;;;1.79;100.00
43071;BME280;36278;47.952;21.714;2023-04-07T05:06:49;100168.16;;;1.79;100.00
43071;BME280;36278;47.952;21.714;2023-04-07T05:09:15;100169.88;;;1.80;100.00
43071;BME280;36278;47.952;21.714;2023-04-07T05:11:41;100173.03;;;1.88;100.00
43071;BME280;36278;47.952;21.714;2023-04-07T05:14:07;100174.56;;;1.92;100.00
43071;BME280;36278;47.952;21.714;2023-04-07T05:16:34;100182.34;;;1.93;100.00
43071;BME280;36278;47.952;21.714;2023-04-07T05:19:00;100177.03;;;1.95;100.00
43071;BME280;36278;47.952;21.714;2023-04-07T05:21:25;100175.03;;;2.02;100.00
43071;BME280;36278;47.952;21.714;2023-04-07T05:23:52;100179.16;;;2.07;100.00
43071;BME280;36278;47.952;21.714;2023-04-07T05:26:17;100185.16;;;2.09;100.00
43071;BME280;36278;47.952;21.714;2023-04-07T05:28:43;100186.81;;;2.12;100.00
43071;BME280;36278;47.952;21.714;2023-04-07T05:31:08;100187.56;;;2.14;100.00
43071;BME280;36278;47.952;21.714;2023-04-07T05:33:33;100176.53;;;2.07;100.00
43071;BME280;36278;47.952;21.714;2023-04-07T05:35:59;100184.03;;;2.15;100.00
43071;BME280;36278;47.952;21.714;2023-04-07T05:38:25;100193.50;;;2.17;100.00
43071;BME280;36278;47.952;21.714;2023-04-07T05:40:50;100194.50;;;2.15;100.00
43071;BME280;36278;47.952;21.714;2023-04-07T05:43:15;100201.75;;;2.08;100.00
43071;BME280;36278;47.952;21.714;2023-04-07T05:45:41;100199.81;;;2.13;100.00
43071;BME280;36278;47.952;21.714;2023-04-07T05:48:06;100198.94;;;2.13;100.00
43071;BME280;36278;47.952;21.714;2023-04-07T05:50:32;100205.53;;;2.01;100.00
43071;BME280;36278;47.952;21.714;2023-04-07T05:52:57;100201.88;;;2.05;100.00
43071;BME280;36278;47.952;21.714;2023-04-07T05:55:23;100197.22;;;1.91;100.00
43071;BME280;36278;47.952;21.714;2023-04-07T05:57:48;100191.72;;;1.77;100.00
43071;BME280;36278;47.952;21.714;2023-04-07T06:00:14;100199.38;;;2.02;100.00
43071;BME280;36278;47.952;21.714;2023-04-07T06:02:40;100200.06;;;2.07;100.00
43071;BME280;36278;47.952;21.714;2023-04-07T06:05:06;100205.53;;;2.01;100.00
43071;BME280;36278;47.952;21.714;2023-04-07T06:07:31;100203.69;;;2.03;100.00
43071;BME280;36278;47.952;21.714;2023-04-07T06:09:57;100191.09;;;2.13;100.00
43071;BME280;36278;47.952;21.714;2023-04-07T06:12:23;100205.88;;;2.14;100.00
43071;BME280;36278;47.952;21.714;2023-04-07T06:14:54;100201.34;;;2.17;100.00
43071;BME280;36278;47.952;21.714;2023-04-07T06:17:21;100196.44;;;2.30;100.00
43071;BME280;36278;47.952;21.714;2023-04-07T06:19:47;100203.66;;;2.44;100.00
43071;BME280;36278;47.952;21.714;2023-04-07T06:22:12;100199.19;;;2.66;100.00
43071;BME280;36278;47.952;21.714;2023-04-07T06:24:38;100194.97;;;2.83;100.00
43071;BME280;36278;47.952;21.714;2023-04-07T06:27:03;100204.97;;;2.93;100.00
43071;BME280;36278;47.952;21.714;2023-04-07T06:29:31;100197.38;;;3.06;100.00
43071;BME280;36278;47.952;21.714;2023-04-07T06:31:57;100211.72;;;3.16;100.00
43071;BME280;36278;47.952;21.714;2023-04-07T06:34:22;100212.16;;;3.07;100.00
43071;BME280;36278;47.952;21.714;2023-04-07T06:36:48;100213.63;;;3.13;100.00
43071;BME280;36278;47.952;21.714;2023-04-07T06:39:13;100216.91;;;3.18;100.00
43071;BME280;36278;47.952;21.714;2023-04-07T06:41:39;100216.03;;;3.17;100.00
43071;BME280;36278;47.952;21.714;2023-04-07T06:44:07;100214.41;;;3.15;100.00
43071;BME280;36278;47.952;21.714;2023-04-07T06:46:33;100214.81;;;3.24;100.00
43071;BME280;36278;47.952;21.714;2023-04-07T06:48:58;100216.38;;;3.28;100.00
43071;BME280;36278;47.952;21.714;2023-04-07T06:51:24;100221.88;;;3.41;100.00
43071;BME280;36278;47.952;21.714;2023-04-07T06:53:50;100223.59;;;3.42;100.00
43071;BME280;36278;47.952;21.714;2023-04-07T06:56:16;100221.94;;;3.40;99.24
43071;BME280;36278;47.952;21.714;2023-04-07T06:58:41;100230.03;;;3.35;100.00
43071;BME280;36278;47.952;21.714;2023-04-07T07:01:07;100226.94;;;3.27;100.00
43071;BME280;36278;47.952;21.714;2023-04-07T07:03:33;100231.44;;;3.23;100.00
43071;BME280;36278;47.952;21.714;2023-04-07T07:05:58;100238.66;;;3.37;100.00
43071;BME280;36278;47.952;21.714;2023-04-07T07:08:25;100235.63;;;3.27;100.00
43071;BME280;36278;47.952;21.714;2023-04-07T07:10:51;100220.56;;;3.14;100.00
43071;BME280;36278;47.952;21.714;2023-04-07T07:13:18;100241.06;;;3.23;100.00
43071;BME280;36278;47.952;21.714;2023-04-07T07:15:44;100242.63;;;3.27;100.00
43071;BME280;36278;47.952;21.714;2023-04-07T07:18:10;100250.41;;;3.28;100.00
43071;BME280;36278;47.952;21.714;2023-04-07T07:20:36;100254.22;;;3.40;100.00
43071;BME280;36278;47.952;21.714;2023-04-07T07:23:02;100258.31;;;3.46;99.98
43071;BME280;36278;47.952;21.714;2023-04-07T07:25:27;100257.16;;;3.34;98.35
43071;BME280;36278;47.952;21.714;2023-04-07T07:27:53;100262.00;;;3.42;100.00
43071;BME280;36278;47.952;21.714;2023-04-07T07:30:20;100264.97;;;3.53;98.15
43071;BME280;36278;47.952;21.714;2023-04-07T07:32:46;100260.09;;;3.45;98.84
43071;BME280;36278;47.952;21.714;2023-04-07T07:35:11;100268.66;;;3.30;100.00
43071;BME280;36278;47.952;21.714;2023-04-07T07:37:37;100261.38;;;3.36;100.00
43071;BME280;36278;47.952;21.714;2023-04-07T07:40:02;100262.47;;;3.50;98.81
43071;BME280;36278;47.952;21.714;2023-04-07T07:42:29;100268.53;;;3.52;99.84
43071;BME280;36278;47.952;21.714;2023-04-07T07:44:55;100260.97;;;3.63;99.56
43071;BME280;36278;47.952;21.714;2023-04-07T07:47:21;100270.53;;;3.64;98.03
43071;BME280;36278;47.952;21.714;2023-04-07T07:49:47;100275.28;;;3.56;96.60
43071;BME280;36278;47.952;21.714;2023-04-07T07:52:12;100266.38;;;3.41;98.84
43071;BME280;36278;47.952;21.714;2023-04-07T07:54:38;100275.84;;;3.62;98.32
43071;BME280;36278;47.952;21.714;2023-04-07T07:57:03;100277.81;;;3.76;97.80
43071;BME280;36278;47.952;21.714;2023-04-07T07:59:30;100283.63;;;3.83;98.50
43071;BME280;36278;47.952;21.714;2023-04-07T08:01:56;100290.06;;;3.76;97.89
43071;BME280;36278;47.952;21.714;2023-04-07T08:04:21;100295.00;;;3.82;98.57
43071;BME280;36278;47.952;21.714;2023-04-07T08:06:48;100289.66;;;4.02;96.20
43071;BME280;36278;47.952;21.714;2023-04-07T08:09:14;100289.34;;;4.08;96.73
43071;BME280;36278;47.952;21.714;2023-04-07T08:11:39;100291.19;;;4.06;96.02
43071;BME280;36278;47.952;21.714;2023-04-07T08:14:06;100295.84;;;4.18;94.59
43071;BME280;36278;47.952;21.714;2023-04-07T08:16:31;100292.44;;;4.16;94.45
43071;BME280;36278;47.952;21.714;2023-04-07T08:18:57;100296.06;;;4.31;95.53
43071;BME280;36278;47.952;21.714;2023-04-07T08:21:22;100295.38;;;4.45;91.19
43071;BME280;36278;47.952;21.714;2023-04-07T08:23:48;100301.63;;;4.60;92.58
43071;BME280;36278;47.952;21.714;2023-04-07T08:26:13;100295.34;;;4.62;91.07
43071;BME280;36278;47.952;21.714;2023-04-07T08:28:39;100295.13;;;4.67;88.31
43071;BME280;36278;47.952;21.714;2023-04-07T08:31:04;100291.53;;;4.85;90.56
43071;BME280;36278;47.952;21.714;2023-04-07T08:33:30;100289.63;;;5.04;90.92
43071;BME280;36278;47.952;21.714;2023-04-07T08:35:55;100302.22;;;5.31;87.53
43071;BME280;36278;47.952;21.714;2023-04-07T08:38:21;100300.78;;;5.41;88.90
43071;BME280;36278;47.952;21.714;2023-04-07T08:40:49;100295.03;;;5.66;87.08
43071;BME280;36278;47.952;21.714;2023-04-07T08:43:19;100295.25;;;5.77;84.84
43071;BME280;36278;47.952;21.714;2023-04-07T08:45:45;100299.09;;;5.87;83.85
43071;BME280;36278;47.952;21.714;2023-04-07T08:48:17;100300.19;;;5.52;86.33
43071;BME280;36278;47.952;21.714;2023-04-07T08:50:48;100304.75;;;5.32;88.32
43071;BME280;36278;47.952;21.714;2023-04-07T08:53:18;100307.00;;;5.07;89.76
43071;BME280;36278;47.952;21.714;2023-04-07T08:55:47;100303.97;;;5.15;88.29
43071;BME280;36278;47.952;21.714;2023-04-07T08:58:13;100312.84;;;5.12;88.93
43071;BME280;36278;47.952;21.714;2023-04-07T09:00:42;100310.41;;;5.09;88.29
43071;BME280;36278;47.952;21.714;2023-04-07T09:03:10;100312.31;;;5.23;87.56
43071;BME280;36278;47.952;21.714;2023-04-07T09:05:36;100305.19;;;4.92;89.76
43071;BME280;36278;47.952;21.714;2023-04-07T09:08:03;100314.81;;;5.09;91.38
43071;BME280;36278;47.952;21.714;2023-04-07T09:10:28;100313.34;;;5.03;90.22
43071;BME280;36278;47.952;21.714;2023-04-07T09:12:54;100310.03;;;4.99;91.73
43071;BME280;36278;47.952;21.714;2023-04-07T09:15:20;100315.38;;;4.98;90.25
43071;BME280;36278;47.952;21.714;2023-04-07T09:17:46;100305.41;;;4.87;91.73
43071;BME280;36278;47.952;21.714;2023-04-07T09:20:11;100322.41;;;4.80;92.35
43071;BME280;36278;47.952;21.714;2023-04-07T09:22:39;100322.16;;;5.02;88.96
43071;BME280;36278;47.952;21.714;2023-04-07T09:27:39;100321.38;;;5.00;89.89
43071;BME280;36278;47.952;21.714;2023-04-07T09:30:13;100319.16;;;4.92;89.70
43071;BME280;36278;47.952;21.714;2023-04-07T09:32:41;100320.06;;;5.09;87.95
43071;BME280;36278;47.952;21.714;2023-04-07T09:35:07;100320.25;;;5.21;85.28
43071;BME280;36278;47.952;21.714;2023-04-07T09:37:33;100320.69;;;5.45;87.47
43071;BME280;36278;47.952;21.714;2023-04-07T09:39:58;100314.34;;;5.49;84.46
43071;BME280;36278;47.952;21.714;2023-04-07T09:42:26;100323.53;;;5.09;86.92
43071;BME280;36278;47.952;21.714;2023-04-07T09:44:55;100330.03;;;5.02;86.55
43071;BME280;36278;47.952;21.714;2023-04-07T09:47:25;100330.25;;;5.15;86.72
43071;BME280;36278;47.952;21.714;2023-04-07T09:49:53;100319.34;;;5.22;87.13
43071;BME280;36278;47.952;21.714;2023-04-07T09:52:25;100333.72;;;5.15;85.39
43071;BME280;36278;47.952;21.714;2023-04-07T09:55:10;100334.75;;;5.28;85.95
43071;BME280;36278;47.952;21.714;2023-04-07T09:57:36;100332.75;;;5.49;84.67
43071;BME280;36278;47.952;21.714;2023-04-07T10:00:04;100323.41;;;5.44;83.16
43071;BME280;36278;47.952;21.714;2023-04-07T10:02:30;100331.47;;;5.56;82.83
43071;BME280;36278;47.952;21.714;2023-04-07T10:04:58;100336.81;;;5.55;84.08
43071;BME280;36278;47.952;21.714;2023-04-07T10:07:24;100334.19;;;5.55;83.74
43071;BME280;36278;47.952;21.714;2023-04-07T10:09:49;100328.16;;;5.53;83.63
43071;BME280;36278;47.952;21.714;2023-04-07T10:12:17;100346.06;;;5.46;83.97
43071;BME280;36278;47.952;21.714;2023-04-07T10:14:45;100336.63;;;5.42;85.08
43071;BME280;36278;47.952;21.714;2023-04-07T10:17:11;100341.66;;;5.47;86.37
43071;BME280;36278;47.952;21.714;2023-04-07T10:19:43;100343.88;;;5.54;84.23
43071;BME280;36278;47.952;21.714;2023-04-07T10:22:10;100352.81;;;5.50;86.21
43071;BME280;36278;47.952;21.714;2023-04-07T10:27:33;100353.69;;;5.51;82.66
43071;BME280;36278;47.952;21.714;2023-04-07T10:30:00;100351.78;;;5.37;83.92
43071;BME280;36278;47.952;21.714;2023-04-07T10:32:28;100355.69;;;5.30;82.85
43071;BME280;36278;47.952;21.714;2023-04-07T10:34:55;100351.84;;;5.20;86.93
43071;BME280;36278;47.952;21.714;2023-04-07T10:37:23;100359.34;;;5.43;85.13
43071;BME280;36278;47.952;21.714;2023-04-07T10:39:51;100349.59;;;5.61;82.83
43071;BME280;36278;47.952;21.714;2023-04-07T10:45:01;100350.44;;;5.95;80.80
43071;BME280;36278;47.952;21.714;2023-04-07T10:47:28;100356.13;;;5.85;82.40
43071;BME280;36278;47.952;21.714;2023-04-07T10:50:16;100352.44;;;6.05;79.96
43071;BME280;36278;47.952;21.714;2023-04-07T10:53:01;100356.09;;;6.03;82.57
43071;BME280;36278;47.952;21.714;2023-04-07T10:55:39;100357.19;;;6.14;79.76
43071;BME280;36278;47.952;21.714;2023-04-07T11:00:42;100358.59;;;6.66;77.78
43071;BME280;36278;47.952;21.714;2023-04-07T11:03:11;100352.97;;;6.42;79.36
43071;BME280;36278;47.952;21.714;2023-04-07T11:05:39;100349.44;;;6.57;77.19
43071;BME280;36278;47.952;21.714;2023-04-07T11:08:04;100356.22;;;6.61;77.33
43071;BME280;36278;47.952;21.714;2023-04-07T11:10:32;100357.38;;;6.41;76.61
43071;BME280;36278;47.952;21.714;2023-04-07T11:13:06;100359.28;;;6.24;78.49
43071;BME280;36278;47.952;21.714;2023-04-07T11:15:36;100363.88;;;6.36;76.54
43071;BME280;36278;47.952;21.714;2023-04-07T11:18:19;100364.97;;;6.16;77.58
43071;BME280;36278;47.952;21.714;2023-04-07T11:21:03;100369.41;;;6.15;77.87
43071;BME280;36278;47.952;21.714;2023-04-07T11:23:42;100369.16;;;6.20;76.64
43071;BME280;36278;47.952;21.714;2023-04-07T11:26:09;100368.38;;;5.86;78.36
43071;BME280;36278;47.952;21.714;2023-04-07T11:28:44;100370.66;;;5.77;80.72
43071;BME280;36278;47.952;21.714;2023-04-07T11:31:10;100364.19;;;5.51;80.72
43071;BME280;36278;47.952;21.714;2023-04-07T11:33:38;100375.41;;;5.54;80.71
43071;BME280;36278;47.952;21.714;2023-04-07T11:36:05;100372.06;;;5.51;81.56
43071;BME280;36278;47.952;21.714;2023-04-07T11:38:35;100375.44;;;5.53;81.59
43071;BME280;36278;47.952;21.714;2023-04-07T11:41:14;100372.09;;;5.67;80.98
43071;BME280;36278;47.952;21.714;2023-04-07T11:43:40;100375.09;;;5.92;79.08
43071;BME280;36278;47.952;21.714;2023-04-07T11:46:14;100369.28;;;5.70;79.10
43071;BME280;36278;47.952;21.714;2023-04-07T11:48:42;100373.53;;;5.72;79.85
43071;BME280;36278;47.952;21.714;2023-04-07T11:51:18;100377.25;;;5.84;80.14
43071;BME280;36278;47.952;21.714;2023-04-07T11:53:44;100375.69;;;5.97;79.55
43071;BME280;36278;47.952;21.714;2023-04-07T11:56:15;100374.50;;;6.03;76.04
43071;BME280;36278;47.952;21.714;2023-04-07T11:58:53;100376.78;;;5.93;78.66
43071;BME280;36278;47.952;21.714;2023-04-07T12:01:20;100381.44;;;5.88;79.39
43071;BME280;36278;47.952;21.714;2023-04-07T12:03:55;100388.19;;;5.76;78.76
43071;BME280;36278;47.952;21.714;2023-04-07T12:06:30;100383.06;;;5.90;78.79
43071;BME280;36278;47.952;21.714;2023-04-07T12:09:02;100386.53;;;5.91;78.05
43071;BME280;36278;47.952;21.714;2023-04-07T12:11:28;100390.63;;;5.97;79.11
43071;BME280;36278;47.952;21.714;2023-04-07T12:13:54;100386.84;;;5.85;80.49
43071;BME280;36278;47.952;21.714;2023-04-07T12:16:21;100392.19;;;5.68;80.65
43071;BME280;36278;47.952;21.714;2023-04-07T12:18:47;100373.53;;;5.56;80.61
43071;BME280;36278;47.952;21.714;2023-04-07T12:21:13;100382.25;;;5.57;78.64
43071;BME280;36278;47.952;21.714;2023-04-07T12:23:38;100397.88;;;5.76;79.79
43071;BME280;36278;47.952;21.714;2023-04-07T12:26:05;100392.59;;;5.76;78.93
43071;BME280;36278;47.952;21.714;2023-04-07T12:28:30;100394.25;;;5.78;80.59
43071;BME280;36278;47.952;21.714;2023-04-07T12:30:56;100391.47;;;5.97;79.20
43071;BME280;36278;47.952;21.714;2023-04-07T12:33:21;100389.41;;;6.02;80.07
43071;BME280;36278;47.952;21.714;2023-04-07T12:35:47;100398.00;;;6.06;79.22
43071;BME280;36278;47.952;21.714;2023-04-07T12:38:12;100394.84;;;5.99;79.94
43071;BME280;36278;47.952;21.714;2023-04-07T12:40:38;100390.97;;;6.06;79.15
43071;BME280;36278;47.952;21.714;2023-04-07T12:43:04;100399.94;;;6.18;78.52
43071;BME280;36278;47.952;21.714;2023-04-07T12:45:30;100404.78;;;6.10;79.64
43071;BME280;36278;47.952;21.714;2023-04-07T12:47:56;100386.44;;;6.08;79.12
43071;BME280;36278;47.952;21.714;2023-04-07T12:50:22;100408.25;;;6.10;77.30
43071;BME280;36278;47.952;21.714;2023-04-07T12:52:49;100403.50;;;6.17;77.94
43071;BME280;36278;47.952;21.714;2023-04-07T12:55:15;100395.09;;;6.10;78.45
43071;BME280;36278;47.952;21.714;2023-04-07T12:57:41;100405.19;;;6.18;77.43
43071;BME280;36278;47.952;21.714;2023-04-07T13:00:07;100403.25;;;6.22;76.10